White Rock, Texas
Current Conditions -  °F | °C
As of 2:15 PM on Friday 24 Oct 2014 (Local Time) from KOCH Reporting Station
Clear Clear  
Wind Chill: 26°   Ceiling: Unl
Heat Index: 26°   Visibility: 10mi
Dew Point: 12°   Wind: 7mph
Humidity: 42%   Direction: 350°N
Pressure: 30.13"   Gusts: NA
Location:  31.516°N, 94.1687°W
Report Text: KOCH 241915Z AUTO 35006KT 10SM CLR 26/12 A3013 RMK AO1
Loading
Personal Weather Stations






























Interactive Weather Map
Tropical Storm Tracking
New forecast layout! Learn more

10-Day Weather Forecast

Advertisements
Track Severe Weather on mobile